Creal Reef, Australia
Current Conditions -  °F | °C
As of 9:00 AM on Monday 22 Dec 2014 (Local Time) from YBMK Reporting Station
Clear Clear  
Wind Chill: 86°   Ceiling: Unl
Heat Index: 87°   Visibility: 6mi
Dew Point: 64°   Wind: 15mph
Humidity: 48%   Direction: 110°ESE
Pressure: 29.94"   Gusts: NA
Location:  20.52°S, 150.37°E
Report Text: YBMK 212300Z AUTO 11013KT 9999 // NCD 30/18 Q1014
Loading
Personal Weather Stations






























Interactive Weather Map New forecast layout! Learn more

10-Day Weather Forecast

Advertisements
Track Severe Weather on mobile